Latest Coastal Weather Observations for Cape Moreton

IDQ60701

Issued at 5:15 pm EST Tuesday 21 October 2014 (issued every 10 minutes, with the page automatically refreshed every 10 minutes)

About coastal observations | Map of coastal stations | Coastal observations for QLD | Marine services | Other Formats
Station Details ID: 040043 Name: CAPE MORETON LIGHTHOUSE Lat: -27.03 Lon: 153.47 Height: 99.9 m
Data from the previous 72 hours. | See also: Recent months at Cape Moreton
Date/Time
EST
Temp

°C
Wind Pressure Rain
since 9am
mm
Weather Cloud Vis
km
Sea
Height
m
Swell
Dir
 
Speed
knots
Gust
knots
hPa Trend Height
m
Period
s
Dir
21/05:00pm 20.3 SE 31 37 1024.0 - 1.0 - - - - - - -
21/04:30pm 19.8 SE 32 36 1023.5 - 1.0 - - - - - - -
21/04:00pm 20.2 SE 31 36 1023.5 - 1.0 - - - - - - -
21/03:30pm 19.5 SE 31 44 1023.0 - 1.0 - - - - - - -
21/03:00pm 20.3 SE 30 35 1023.4 - 1.0 Recent precip. - - - - - -
21/02:30pm 20.0 SSE 31 36 1023.4 - 1.0 - - - - - - -
21/02:00pm 19.9 SE 29 37 1023.7 - 0.4 - - - - - - -
21/01:30pm 21.7 SSE 29 33 1023.9 - 0.2 - - - - - - -
21/01:00pm 22.0 SSE 30 35 1024.1 - 0.2 - - - - - - -
21/12:37pm 20.9 SSE 30 33 1024.4 - 0.2 - - - - - - -
21/12:31pm 20.1 SE 19 32 1024.7 - 0.2 - - - - - - -
21/12:30pm 19.9 SE 19 27 1024.9 - 0.2 - - - - - - -
21/12:00pm 19.7 ESE 17 21 1025.5 - 0.2 Recent precip. - - - - - -
21/11:55am 20.1 ESE 19 24 1025.6 - 0.2 - - - - - - -
21/11:33am 19.3 SSE 25 29 1025.5 - 0.2 - - - - - - -
21/11:30am 19.6 SE 12 17 1025.9 - 0.2 - - - - - - -
21/11:00am 21.1 SE 13 16 1026.2 - 0.0 - - - - - - -
21/10:30am 19.9 ESE 14 17 1026.3 - 0.0 - - - - - - -
21/10:00am 20.3 ESE 16 19 1026.4 - 0.0 - - - - - - -
21/09:30am 20.1 ESE 17 21 1026.4 - 0.0 - - - - - - -
21/09:13am 19.2 SSE 16 27 1026.2 - 0.0 - - - - - - -
21/09:00am 18.5 SE 14 18 1026.7 - 1.0 Rain - - - - - -
21/08:30am 18.6 SE 22 27 1026.5 - 0.2 - - - - - - -
21/08:00am 18.6 SSE 15 18 1026.4 - 0.2 - - - - - - -
21/07:30am 19.3 SE 28 31 1025.7 - 0.0 - - - - - - -
21/07:28am 19.7 SE 15 29 1025.9 - 0.0 - - - - - - -
21/07:00am 20.2 ESE 11 14 1025.9 - 0.0 - - - - - - -
21/06:30am 20.2 ESE 14 17 1025.4 - 0.0 - - - - - - -
21/06:00am 20.2 ESE 16 20 1024.9 - 0.0 - - - - - - -
21/05:30am 20.0 ESE 16 19 1024.5 - 0.0 - - - - - - -
21/05:00am 19.8 ESE 17 20 1024.3 - 0.0 - - - - - - -
21/04:30am 19.7 ESE 18 21 1024.1 - 0.0 - - - - - - -
21/04:00am 19.7 E 18 22 1024.0 - 0.0 - - - - - - -
21/03:30am 19.7 ESE 19 21 1024.1 - 0.0 - - - - - - -
21/03:00am 19.7 ESE 17 20 1024.3 - 0.0 - - - - - - -
21/02:30am 19.7 ESE 18 21 1024.4 - 0.0 - - - - - - -
21/02:00am 19.8 ESE 19 22 1024.3 - 0.0 - - - - - - -
21/01:30am 19.9 E 18 22 1024.7 - 0.0 - - - - - - -
21/01:00am 19.8 ESE 16 20 1025.3 - 0.0 - - - - - - -
21/12:30am 19.9 ESE 16 19 1025.5 - 0.0 - - - - - - -
21/12:00am 19.9 ESE 18 22 1025.7 - 0.0 - - - - - - -
 
Date/Time
EST
Temp

°C
Wind Pressure Rain
since 9am
mm
Weather Cloud Vis
km
Sea
Height
m
Swell
Dir
 
Speed
knots
Gust
knots
hPa Trend Height
m
Period
s
Dir
20/11:30pm 20.0 ESE 18 24 1025.8 - 0.0 - - - - - - -
20/11:00pm 20.1 ESE 19 22 1026.1 - 0.0 - - - - - - -
20/10:30pm 20.1 ESE 20 24 1026.1 - 0.0 - - - - - - -
20/10:00pm 20.1 ESE 21 25 1026.0 - 0.0 - - - - - - -
20/09:30pm 20.2 ESE 20 24 1026.0 - 0.0 - - - - - - -
20/09:00pm 20.0 ESE 18 23 1025.9 - 0.0 - - - - - - -
20/08:30pm 19.9 ESE 16 19 1025.7 - 0.0 - - - - - - -
20/08:00pm 19.9 ESE 15 18 1025.3 - 0.0 - - - - - - -
20/07:30pm 19.8 ESE 14 18 1024.7 - 0.0 - - - - - - -
20/07:00pm 19.8 ESE 13 14 1024.4 - 0.0 - - - - - - -
20/06:30pm 19.7 E 12 14 1024.0 - 0.0 - - - - - - -
20/06:00pm 19.8 E 11 14 1023.4 - 0.0 - - - - - - -
20/05:30pm 20.0 E 10 13 1022.9 - 0.0 - - - - - - -
20/05:00pm 20.2 E 10 13 1022.6 - 0.0 - - - - - - -
20/04:30pm 20.4 E 11 14 1022.3 - 0.0 - - - - - - -
20/04:00pm 20.5 ENE 11 13 1022.2 - 0.0 - - - - - - -
20/03:30pm 21.3 E 10 11 1022.2 - 0.0 - - - - - - -
20/03:00pm 21.3 E 9 11 1022.2 - 0.0 - - - - - - -
20/02:30pm 21.8 ENE 8 10 1022.4 - 0.0 - - - - - - -
20/02:00pm 22.3 E 8 10 1022.6 - 0.0 - - - - - - -
20/01:30pm 22.0 ENE 8 11 1022.9 - 0.0 - - - - - - -
20/01:00pm 22.4 ENE 7 10 1023.1 - 0.0 - - - - - - -
20/12:30pm 22.2 ENE 7 10 1023.5 - 0.0 - - - - - - -
20/12:00pm 22.5 ENE 7 9 1023.8 - 0.0 - - - - - - -
20/11:30am 22.6 E 7 8 1024.3 - 0.0 - - - - - - -
20/11:00am 22.0 E 5 7 1024.9 - 0.0 - - - - - - -
20/10:30am 22.1 ENE 6 8 1025.1 - 0.0 - - - - - - -
20/10:00am 22.5 E 6 8 1025.4 - 0.0 - - - - - - -
20/09:30am 22.5 ESE 5 8 1025.6 - 0.0 - - - - - - -
20/09:00am 22.6 E 6 7 1025.6 - 0.0 - - - - - - -
20/08:30am 22.1 E 6 8 1025.8 - 0.0 - - - - - - -
20/08:00am 21.3 ESE 6 8 1025.6 - 0.0 - - - - - - -
20/07:30am 21.6 ESE 6 9 1025.3 - 0.0 - - - - - - -
20/07:00am 21.2 ESE 7 9 1025.1 - 0.0 - - - - - - -
20/06:30am 20.8 ESE 8 10 1024.9 - 0.0 - - - - - - -
20/06:00am 19.7 ESE 8 9 1024.6 - 0.0 - - - - - - -
20/05:30am 18.5 E 8 11 1024.2 - 0.0 - - - - - - -
20/05:00am 17.7 ESE 9 11 1024.1 - 0.0 - - - - - - -
20/04:30am 17.8 ESE 7 10 1024.1 - 0.0 - - - - - - -
20/04:00am 18.0 E 9 12 1023.8 - 0.0 - - - - - - -
20/03:30am 17.8 E 7 9 1023.8 - 0.0 - - - - - - -
20/03:00am 17.9 ESE 8 10 1023.8 - 0.0 - - - - - - -
20/02:30am 18.1 ESE 9 14 1023.8 - 0.0 - - - - - - -
20/02:00am 18.2 E 11 13 1024.1 - 0.0 - - - - - - -
20/01:30am 18.2 E 10 13 1024.4 - 0.0 - - - - - - -
20/01:00am 18.2 E 10 13 1024.8 - 0.0 - - - - - - -
20/12:30am 18.5 E 11 14 1025.3 - 0.0 - - - - - - -
20/12:00am 18.8 E 12 15 1025.4 - 0.0 - - - - - - -
 
Date/Time
EST
Temp

°C
Wind Pressure Rain
since 9am
mm
Weather Cloud Vis
km
Sea
Height
m
Swell
Dir
 
Speed
knots
Gust
knots
hPa Trend Height
m
Period
s
Dir
19/11:30pm 18.8 E 14 17 1025.5 - 0.0 - - - - - - -
19/11:00pm 18.8 E 11 15 1025.8 - 0.0 - - - - - - -
19/10:30pm 18.8 E 15 17 1026.0 - 0.0 - - - - - - -
19/10:00pm 18.9 E 16 20 1025.9 - 0.0 - - - - - - -
19/09:30pm 19.0 E 14 17 1026.0 - 0.0 - - - - - - -
19/09:00pm 19.1 E 17 20 1025.9 - 0.0 - - - - - - -
19/08:30pm 19.1 E 16 19 1025.9 - 0.0 - - - - - - -
19/08:00pm 19.1 E 18 23 1025.5 - 0.0 - - - - - - -
19/07:30pm 19.3 E 17 21 1025.5 - 0.0 - - - - - - -
19/07:00pm 19.3 ESE 17 21 1025.1 - 0.0 - - - - - - -
19/06:30pm 19.3 ESE 18 23 1024.5 - 0.0 - - - - - - -
19/06:00pm 19.5 E 19 22 1024.2 - 0.0 - - - - - - -
19/05:30pm 19.8 ESE 19 22 1023.8 - 0.0 - - - - - - -
19/05:00pm 20.0 ESE 19 23 1023.4 - 0.0 - - - - - - -
19/04:30pm 20.4 ESE 19 23 1023.2 - 0.0 - - - - - - -
19/04:00pm 20.7 ESE 18 23 1023.2 - 0.0 - - - - - - -
19/03:30pm 20.8 ESE 19 23 1023.2 - 0.0 - - - - - - -
19/03:00pm 21.2 SE 19 23 1023.3 - 0.0 - - - - - - -
19/02:30pm 21.4 SE 20 24 1023.5 - 0.0 - - - - - - -
19/02:00pm 21.5 SE 20 24 1023.8 - 0.0 - - - - - - -
19/01:30pm 21.7 SE 19 23 1024.3 - 0.0 - - - - - - -
19/01:00pm 21.6 SE 19 23 1024.7 - 0.0 - - - - - - -
19/12:30pm 21.1 SSE 17 20 1025.3 - 0.0 - - - - - - -
19/12:00pm 21.4 SE 16 20 1025.7 - 0.0 - - - - - - -
19/11:30am 23.4 SE 14 17 1026.0 - 0.0 - - - - - - -
19/11:00am 22.8 SE 15 19 1026.3 - 0.0 - - - - - - -
19/10:30am 22.9 ESE 15 18 1026.5 - 0.0 - - - - - - -
19/10:00am 22.7 ESE 17 21 1026.8 - 0.0 - - - - - - -
19/09:30am 21.9 ESE 16 20 1027.0 - 0.0 - - - - - - -
19/09:00am 22.2 SE 19 21 1027.0 - 0.0 - - - - - - -
19/08:30am 22.2 SE 18 21 1027.0 - 0.0 - - - - - - -
19/08:00am 21.8 ESE 19 23 1026.9 - 0.0 - - - - - - -
19/07:30am 20.5 ESE 21 24 1026.7 - 0.0 - - - - - - -
19/07:00am 20.7 ESE 19 24 1026.3 - 0.0 - - - - - - -
19/06:30am 19.7 ESE 21 25 1026.0 - 0.0 - - - - - - -
19/06:00am 19.5 ESE 20 24 1025.7 - 0.0 - - - - - - -
19/05:30am 19.4 ESE 20 25 1025.4 - 0.0 - - - - - - -
19/05:00am 19.2 ESE 22 25 1025.1 - 0.0 - - - - - - -
19/04:30am 19.5 ESE 20 23 1024.5 - 0.0 - - - - - - -
19/04:00am 19.0 ESE 20 26 1024.7 - 0.0 - - - - - - -
19/03:30am 19.4 ESE 20 23 1024.4 - 0.0 - - - - - - -
19/03:00am 19.3 ESE 19 23 1024.4 - 0.0 - - - - - - -
19/02:30am 19.5 ESE 19 23 1024.4 - 0.0 - - - - - - -
19/02:00am 19.3 ESE 21 26 1024.3 - 0.0 - - - - - - -
19/01:30am 19.4 ESE 21 27 1024.3 - 0.0 - - - - - - -
19/01:00am 19.4 ESE 22 31 1024.5 - 0.0 - - - - - - -
19/12:57am 19.7 ESE 19 29 1024.6 - 0.0 - - - - - - -
19/12:30am 19.5 ESE 21 24 1025.1 - 0.0 - - - - - - -
19/12:00am 19.5 ESE 22 25 1025.5 - 0.0 - - - - - - -
 
Date/Time
EST
Temp

°C
Wind Pressure Rain
since 9am
mm
Weather Cloud Vis
km
Sea
Height
m
Swell
Dir
 
Speed
knots
Gust
knots
hPa Trend Height
m
Period
s
Dir
18/11:30pm 19.4 ESE 21 26 1025.5 - 0.0 - - - - - - -
18/11:00pm 19.1 ESE 23 26 1025.8 - 0.0 - - - - - - -
18/10:30pm 19.1 ESE 26 31 1025.8 - 0.0 - - - - - - -
18/10:14pm 19.7 ESE 23 31 1025.7 - 0.0 - - - - - - -
18/10:00pm 19.2 ESE 17 20 1026.0 - 0.0 - - - - - - -
18/09:30pm 19.1 ESE 19 21 1026.2 - 0.0 - - - - - - -
18/09:00pm 19.0 ESE 21 25 1026.0 - 0.0 - - - - - - -
18/08:30pm 18.9 SE 26 31 1025.6 - 0.0 - - - - - - -
18/08:05pm 18.3 SE 21 28 1025.7 - 0.0 - - - - - - -
18/08:00pm 18.2 E 15 18 1026.0 - 0.0 - - - - - - -
18/07:51pm 18.2 E 25 28 1025.7 - 0.0 - - - - - - -
18/07:47pm 18.7 SE 21 32 1025.5 - 0.0 - - - - - - -
18/07:30pm 18.2 SE 18 21 1025.9 - 0.0 - - - - - - -
18/07:00pm 18.1 SE 25 30 1025.6 - 0.0 - - - - - - -
18/06:30pm 18.8 SE 27 32 1024.6 - 0.0 - - - - - - -
18/06:00pm 18.8 SE 24 28 1024.3 - 0.0 - - - - - - -
18/05:30pm 19.0 SE 26 30 1023.7 - 0.0 - - - - - - -

Other Formats:

Comma delimited format used in spreadsheet applications
http://www.bom.gov.au/fwo/IDQ60701/IDQ60701.94594.axf

JavaScript Object Notation format (JSON) in row-major order
http://www.bom.gov.au/fwo/IDQ60701/IDQ60701.94594.json